Terminal Aerodrome Forecast
Issued by NWS

Current Version | Previous Version | Text Only | Print | Product List | Glossary On
Versions: 1 2 3 4 5 6 7 8 9 10 11 12 13 14 15 16 17 18 19 20 21 22 23 24 25
802
FTUS43 KBIS 052332
TAFJMS
TAF
KJMS 052332Z 0600/0624 35012KT 1SM -SN BR OVC010
      TEMPO 0600/0604 1/2SM SN OVC005
     FM060600 30015G25KT 2SM -SN BR OVC010
     FM060900 30026G38KT 1SM -SN BLSN OVC008
     FM061600 30030G41KT 1/2SM -SN BLSN OVC003=

USA.gov is the U.S. government's official web portal to all federal, state and local government web resources and services.